Time,TemperatureF,DewpointF,PressureIn,WindDirection,WindDirectionDegrees,WindSpeedMPH,WindSpeedGustMPH,Humidity,HourlyPrecipIn,Conditions,Clouds,dailyrainin,SoftwareType,DateUTC
2013-01-06 00:02:00,38.2,23.3,27.57,NE,45,0.0,0.2,55,0.00,,,0.00,WUHU216HW,2013-01-06 07:02:00,
2013-01-06 00:07:00,37.8,23.1,27.56,SE,135,0.0,0.2,55,0.00,,,0.00,WUHU216HW,2013-01-06 07:07:00,
2013-01-06 00:12:00,37.6,22.9,27.56,East,90,0.0,0.2,55,0.00,,,0.00,WUHU216HW,2013-01-06 07:12:00,
2013-01-06 00:17:00,37.4,23.1,27.56,NNE,23,0.0,0.2,56,0.00,,,0.00,WUHU216HW,2013-01-06 07:17:00,
2013-01-06 00:22:00,37.4,23.1,27.56,NE,45,0.0,0.2,56,0.00,,,0.00,WUHU216HW,2013-01-06 07:22:00,
2013-01-06 00:27:00,37.3,23.0,27.56,NE,45,0.0,0.0,56,0.00,,,0.00,WUHU216HW,2013-01-06 07:27:00,
2013-01-06 00:32:00,37.1,22.8,27.56,ENE,68,0.0,0.4,56,0.00,,,0.00,WUHU216HW,2013-01-06 07:32:00,
2013-01-06 00:37:00,37.1,23.2,27.56,North,0,0.0,0.4,57,0.00,,,0.00,WUHU216HW,2013-01-06 07:37:00,
2013-01-06 00:42:00,36.9,23.0,27.56,ENE,68,0.0,0.2,57,0.00,,,0.00,WUHU216HW,2013-01-06 07:42:00,
2013-01-06 00:47:00,36.7,22.9,27.56,ENE,68,0.0,0.2,57,0.00,,,0.00,WUHU216HW,2013-01-06 07:47:00,
2013-01-06 00:52:00,36.7,22.9,27.56,NE,45,0.0,0.4,57,0.00,,,0.00,WUHU216HW,2013-01-06 07:52:00,
2013-01-06 00:57:00,36.4,23.1,27.56,SE,135,0.0,0.4,58,0.00,,,0.00,WUHU216HW,2013-01-06 07:57:00,
2013-01-06 01:02:00,36.2,22.9,27.56,ENE,68,0.0,0.4,58,0.00,,,0.00,WUHU216HW,2013-01-06 08:02:00,
2013-01-06 01:07:00,36.0,22.7,27.55,NNE,23,0.0,0.4,58,0.00,,,0.00,WUHU216HW,2013-01-06 08:07:00,
2013-01-06 01:12:00,36.0,23.1,27.55,SE,135,0.0,0.4,59,0.00,,,0.00,WUHU216HW,2013-01-06 08:12:00,
2013-01-06 01:17:00,36.0,23.1,27.55,ENE,68,0.4,0.4,59,0.00,,,0.00,WUHU216HW,2013-01-06 08:17:00,
2013-01-06 01:22:00,35.8,23.0,27.55,NE,45,0.0,0.4,59,0.00,,,0.00,WUHU216HW,2013-01-06 08:22:00,
2013-01-06 01:27:00,36.0,23.1,27.55,NNE,23,0.0,0.4,59,0.00,,,0.00,WUHU216HW,2013-01-06 08:27:00,
2013-01-06 01:32:00,36.0,23.1,27.56,ESE,113,0.0,0.0,59,0.00,,,0.00,WUHU216HW,2013-01-06 08:32:00,
2013-01-06 01:37:00,36.0,23.6,27.56,NNW,338,0.0,0.4,60,0.00,,,0.00,WUHU216HW,2013-01-06 08:37:00,
2013-01-06 01:42:00,35.8,23.0,27.56,NNE,23,0.0,0.4,59,0.00,,,0.00,WUHU216HW,2013-01-06 08:42:00,
2013-01-06 01:47:00,35.8,23.4,27.56,WSW,248,0.0,0.2,60,0.00,,,0.00,WUHU216HW,2013-01-06 08:47:00,
2013-01-06 01:52:00,35.6,23.2,27.56,North,0,0.2,1.1,60,0.00,,,0.00,WUHU216HW,2013-01-06 08:52:00,
2013-01-06 01:57:00,35.5,23.0,27.56,North,0,0.4,1.1,60,0.00,,,0.00,WUHU216HW,2013-01-06 08:57:00,
2013-01-06 02:02:00,35.5,23.0,27.56,NE,45,0.0,0.9,60,0.00,,,0.00,WUHU216HW,2013-01-06 09:02:00,
2013-01-06 02:07:00,35.6,23.2,27.56,North,0,0.0,0.4,60,0.00,,,0.00,WUHU216HW,2013-01-06 09:07:00,
2013-01-06 02:12:00,35.8,23.4,27.56,NNW,338,0.0,0.4,60,0.00,,,0.00,WUHU216HW,2013-01-06 09:12:00,
2013-01-06 02:17:00,35.8,23.4,27.56,NNE,23,0.0,0.4,60,0.00,,,0.00,WUHU216HW,2013-01-06 09:17:00,
2013-01-06 02:22:00,36.0,23.6,27.55,NE,45,0.0,0.0,60,0.00,,,0.00,WUHU216HW,2013-01-06 09:22:00,
2013-01-06 02:27:00,36.0,23.6,27.55,SW,225,0.0,0.4,60,0.00,,,0.00,WUHU216HW,2013-01-06 09:27:00,
2013-01-06 02:32:00,36.0,23.6,27.55,East,90,0.0,0.4,60,0.00,,,0.00,WUHU216HW,2013-01-06 09:32:00,
2013-01-06 02:37:00,36.0,23.6,27.55,ENE,68,0.0,0.0,60,0.00,,,0.00,WUHU216HW,2013-01-06 09:37:00,
2013-01-06 02:42:00,35.6,23.2,27.55,ESE,113,0.9,0.9,60,0.00,,,0.00,WUHU216HW,2013-01-06 09:42:00,
2013-01-06 02:47:00,35.5,23.0,27.55,ENE,68,0.7,1.1,60,0.00,,,0.00,WUHU216HW,2013-01-06 09:47:00,
2013-01-06 02:52:00,35.3,22.9,27.55,NNW,338,0.0,1.1,60,0.00,,,0.00,WUHU216HW,2013-01-06 09:52:00,
2013-01-06 02:57:00,35.3,22.9,27.56,ENE,68,0.0,1.1,60,0.00,,,0.00,WUHU216HW,2013-01-06 09:57:00,
2013-01-06 03:02:00,35.5,23.0,27.56,NE,45,0.0,0.4,60,0.00,,,0.00,WUHU216HW,2013-01-06 10:02:00,
2013-01-06 03:07:00,35.6,23.2,27.56,ENE,68,0.0,0.4,60,0.00,,,0.00,WUHU216HW,2013-01-06 10:07:00,
2013-01-06 03:12:00,35.6,23.2,27.56,NNE,23,0.4,0.7,60,0.00,,,0.00,WUHU216HW,2013-01-06 10:12:00,
2013-01-06 03:17:00,35.6,23.2,27.55,NE,45,0.0,0.7,60,0.00,,,0.00,WUHU216HW,2013-01-06 10:17:00,
2013-01-06 03:22:00,35.6,23.2,27.55,NE,45,0.0,0.4,60,0.00,,,0.00,WUHU216HW,2013-01-06 10:22:00,
2013-01-06 03:27:00,35.6,23.2,27.55,North,0,0.0,0.0,60,0.00,,,0.00,WUHU216HW,2013-01-06 10:27:00,
2013-01-06 03:32:00,35.6,23.2,27.56,North,0,0.0,0.0,60,0.00,,,0.00,WUHU216HW,2013-01-06 10:32:00,
2013-01-06 03:37:00,35.5,23.0,27.55,ENE,68,0.2,0.2,60,0.00,,,0.00,WUHU216HW,2013-01-06 10:37:00,
2013-01-06 03:42:00,35.3,22.9,27.55,NNW,338,0.0,0.4,60,0.00,,,0.00,WUHU216HW,2013-01-06 10:42:00,
2013-01-06 03:47:00,35.3,22.9,27.55,North,0,0.0,0.4,60,0.00,,,0.00,WUHU216HW,2013-01-06 10:47:00,
2013-01-06 03:52:00,35.3,22.9,27.55,NNE,23,0.0,0.0,60,0.00,,,0.00,WUHU216HW,2013-01-06 10:52:00,
2013-01-06 03:57:00,35.3,22.9,27.55,NNE,23,0.0,0.0,60,0.00,,,0.00,WUHU216HW,2013-01-06 10:57:00,
2013-01-06 04:02:00,35.3,22.9,27.55,North,0,0.0,0.0,60,0.00,,,0.00,WUHU216HW,2013-01-06 11:02:00,
2013-01-06 04:07:00,35.3,23.2,27.54,NE,45,0.0,0.0,61,0.00,,,0.00,WUHU216HW,2013-01-06 11:07:00,
2013-01-06 04:12:00,35.1,23.0,27.54,NE,45,0.0,0.4,61,0.00,,,0.00,WUHU216HW,2013-01-06 11:12:00,
2013-01-06 04:17:00,34.9,22.9,27.54,SW,225,0.0,0.4,61,0.00,,,0.00,WUHU216HW,2013-01-06 11:17:00,
2013-01-06 04:22:00,34.7,22.7,27.54,NNE,23,0.0,0.4,61,0.00,,,0.00,WUHU216HW,2013-01-06 11:22:00,
2013-01-06 04:27:00,34.7,22.7,27.53,North,0,0.0,1.1,61,0.00,,,0.00,WUHU216HW,2013-01-06 11:27:00,
2013-01-06 04:32:00,34.6,22.5,27.53,NW,315,0.0,1.1,61,0.00,,,0.00,WUHU216HW,2013-01-06 11:32:00,
2013-01-06 04:37:00,34.6,22.5,27.53,NE,45,0.2,0.7,61,0.00,,,0.00,WUHU216HW,2013-01-06 11:37:00,
2013-01-06 04:42:00,34.6,22.5,27.53,NE,45,1.1,1.1,61,0.00,,,0.00,WUHU216HW,2013-01-06 11:42:00,
2013-01-06 04:47:00,34.6,22.5,27.53,NNW,338,0.0,1.1,61,0.00,,,0.00,WUHU216HW,2013-01-06 11:47:00,
2013-01-06 04:52:00,34.7,22.7,27.53,ESE,113,0.4,1.1,61,0.00,,,0.00,WUHU216HW,2013-01-06 11:52:00,
2013-01-06 04:57:00,34.7,22.7,27.53,South,180,0.0,1.1,61,0.00,,,0.00,WUHU216HW,2013-01-06 11:57:00,
2013-01-06 05:02:00,34.7,22.7,27.53,NE,45,0.0,1.1,61,0.00,,,0.00,WUHU216HW,2013-01-06 12:02:00,
2013-01-06 05:07:00,34.7,22.7,27.52,SE,135,0.0,0.7,61,0.00,,,0.00,WUHU216HW,2013-01-06 12:07:00,
2013-01-06 05:12:00,34.4,22.3,27.52,SE,135,0.4,0.9,61,0.00,,,0.00,WUHU216HW,2013-01-06 12:12:00,
2013-01-06 05:17:00,34.2,22.5,27.52,NNW,338,0.2,0.9,62,0.00,,,0.00,WUHU216HW,2013-01-06 12:17:00,
2013-01-06 05:22:00,34.2,22.5,27.53,ENE,68,0.4,0.9,62,0.00,,,0.00,WUHU216HW,2013-01-06 12:22:00,
2013-01-06 05:27:00,34.0,22.3,27.52,East,90,0.0,0.4,62,0.00,,,0.00,WUHU216HW,2013-01-06 12:27:00,
2013-01-06 05:32:00,34.0,22.3,27.52,North,0,0.2,0.9,62,0.00,,,0.00,WUHU216HW,2013-01-06 12:32:00,
2013-01-06 05:37:00,33.8,22.1,27.52,SW,225,0.0,0.9,62,0.00,,,0.00,WUHU216HW,2013-01-06 12:37:00,
2013-01-06 05:41:00,33.7,22.3,27.52,NW,315,0.0,0.9,63,0.00,,,0.00,WUHU216HW,2013-01-06 12:41:00,
2013-01-06 05:46:00,33.8,22.5,27.52,ESE,113,0.2,0.4,63,0.00,,,0.00,WUHU216HW,2013-01-06 12:46:00,
2013-01-06 05:51:00,34.0,22.3,27.52,NE,45,0.0,0.4,62,0.00,,,0.00,WUHU216HW,2013-01-06 12:51:00,
2013-01-06 05:56:00,34.2,22.5,27.52,NE,45,0.0,0.2,62,0.00,,,0.00,WUHU216HW,2013-01-06 12:56:00,
2013-01-06 06:01:00,34.2,22.5,27.52,WSW,248,0.0,0.2,62,0.00,,,0.00,WUHU216HW,2013-01-06 13:01:00,
2013-01-06 06:06:00,34.0,22.3,27.52,NW,315,0.0,0.4,62,0.00,,,0.00,WUHU216HW,2013-01-06 13:06:00,
2013-01-06 06:11:00,34.0,22.3,27.52,South,180,0.4,0.4,62,0.00,,,0.00,WUHU216HW,2013-01-06 13:11:00,
2013-01-06 06:16:00,34.0,22.7,27.52,ENE,68,0.4,0.9,63,0.00,,,0.00,WUHU216HW,2013-01-06 13:16:00,
2013-01-06 06:21:00,33.8,22.5,27.52,SSW,203,0.0,0.9,63,0.00,,,0.00,WUHU216HW,2013-01-06 13:21:00,
2013-01-06 06:26:00,33.8,22.5,27.52,NE,45,0.0,0.4,63,0.00,,,0.00,WUHU216HW,2013-01-06 13:26:00,
2013-01-06 06:31:00,33.8,22.5,27.52,East,90,0.0,0.7,63,0.00,,,0.00,WUHU216HW,2013-01-06 13:31:00,
2013-01-06 06:36:00,34.0,22.7,27.51,ENE,68,0.2,0.9,63,0.00,,,0.00,WUHU216HW,2013-01-06 13:36:00,
2013-01-06 06:41:00,34.2,22.9,27.51,ENE,68,0.0,0.9,63,0.00,,,0.00,WUHU216HW,2013-01-06 13:41:00,
2013-01-06 06:46:00,34.2,22.9,27.51,WNW,293,0.7,0.7,63,0.00,,,0.00,WUHU216HW,2013-01-06 13:46:00,
2013-01-06 06:51:00,34.2,22.9,27.52,ESE,113,0.0,0.7,63,0.00,,,0.00,WUHU216HW,2013-01-06 13:51:00,
2013-01-06 06:56:00,34.2,22.9,27.52,NNW,338,0.7,1.1,63,0.00,,,0.00,WUHU216HW,2013-01-06 13:56:00,
2013-01-06 07:01:00,34.2,22.9,27.52,North,0,0.0,1.1,63,0.00,,,0.00,WUHU216HW,2013-01-06 14:01:00,
2013-01-06 07:06:00,34.4,22.7,27.52,NNW,338,0.0,0.7,62,0.00,,,0.00,WUHU216HW,2013-01-06 14:06:00,
2013-01-06 07:11:00,34.6,22.9,27.52,WSW,248,0.0,0.4,62,0.00,,,0.00,WUHU216HW,2013-01-06 14:11:00,
2013-01-06 07:16:00,34.6,22.9,27.52,NNW,338,0.0,0.4,62,0.00,,,0.00,WUHU216HW,2013-01-06 14:16:00,
2013-01-06 07:21:00,34.7,23.0,27.52,NW,315,0.7,0.7,62,0.00,,,0.00,WUHU216HW,2013-01-06 14:21:00,
2013-01-06 07:26:00,34.9,23.2,27.52,ESE,113,0.0,0.7,62,0.00,,,0.00,WUHU216HW,2013-01-06 14:26:00,
2013-01-06 07:31:00,34.9,23.2,27.52,NNE,23,0.2,0.7,62,0.00,,,0.00,WUHU216HW,2013-01-06 14:31:00,
2013-01-06 07:36:00,34.9,23.2,27.53,ESE,113,0.0,0.7,62,0.00,,,0.00,WUHU216HW,2013-01-06 14:36:00,
2013-01-06 07:41:00,35.1,23.4,27.53,NE,45,0.0,0.2,62,0.00,,,0.00,WUHU216HW,2013-01-06 14:41:00,
2013-01-06 07:46:00,35.3,23.6,27.53,NE,45,0.0,0.2,62,0.00,,,0.00,WUHU216HW,2013-01-06 14:46:00,
2013-01-06 07:51:00,35.1,23.4,27.52,North,0,0.4,0.4,62,0.00,,,0.00,WUHU216HW,2013-01-06 14:51:00,
2013-01-06 07:56:00,35.1,23.4,27.52,NNW,338,0.7,1.1,62,0.00,,,0.00,WUHU216HW,2013-01-06 14:56:00,
2013-01-06 08:01:00,35.3,23.6,27.52,SW,225,0.0,1.1,62,0.00,,,0.00,WUHU216HW,2013-01-06 15:01:00,
2013-01-06 08:06:00,35.6,23.6,27.52,ESE,113,0.9,1.1,61,0.00,,,0.00,WUHU216HW,2013-01-06 15:06:00,
2013-01-06 08:11:00,36.0,24.0,27.52,SE,135,0.2,1.1,61,0.00,,,0.00,WUHU216HW,2013-01-06 15:11:00,
2013-01-06 08:16:00,36.4,24.2,27.53,NNE,23,0.0,1.1,61,0.00,,,0.00,WUHU216HW,2013-01-06 15:16:00,
2013-01-06 08:21:00,36.5,24.8,27.53,NNW,338,0.0,0.4,62,0.00,,,0.00,WUHU216HW,2013-01-06 15:21:00,
2013-01-06 08:26:00,36.9,24.8,27.53,NNW,338,0.0,0.4,61,0.00,,,0.00,WUHU216HW,2013-01-06 15:26:00,
2013-01-06 08:31:00,37.3,25.0,27.53,NE,45,0.4,0.4,61,0.00,,,0.00,WUHU216HW,2013-01-06 15:31:00,
2013-01-06 08:36:00,37.8,25.6,27.53,NW,315,0.0,1.3,61,0.00,,,0.00,WUHU216HW,2013-01-06 15:36:00,
2013-01-06 08:41:00,38.5,25.8,27.53,SW,225,0.0,1.3,60,0.00,,,0.00,WUHU216HW,2013-01-06 15:41:00,
2013-01-06 08:46:00,39.2,26.0,27.53,WSW,248,0.0,1.3,59,0.00,,,0.00,WUHU216HW,2013-01-06 15:46:00,
2013-01-06 08:51:00,39.8,26.1,27.53,WNW,293,0.0,1.3,58,0.00,,,0.00,WUHU216HW,2013-01-06 15:51:00,
2013-01-06 08:56:00,40.5,26.4,27.53,NNW,338,0.4,1.1,57,0.00,,,0.00,WUHU216HW,2013-01-06 15:56:00,
2013-01-06 09:01:00,40.9,26.3,27.53,West,270,0.4,1.1,56,0.00,,,0.00,WUHU216HW,2013-01-06 16:01:00,
2013-01-06 09:06:00,41.4,26.4,27.53,WSW,248,0.0,0.4,55,0.00,,,0.00,WUHU216HW,2013-01-06 16:06:00,
2013-01-06 09:11:00,41.9,26.0,27.54,West,270,0.0,0.7,53,0.00,,,0.00,WUHU216HW,2013-01-06 16:11:00,
2013-01-06 09:16:00,42.7,26.3,27.53,WSW,248,0.4,0.7,52,0.00,,,0.00,WUHU216HW,2013-01-06 16:16:00,
2013-01-06 09:21:00,43.4,26.5,27.53,WSW,248,0.0,0.7,51,0.00,,,0.00,WUHU216HW,2013-01-06 16:21:00,
2013-01-06 09:26:00,43.9,27.0,27.54,South,180,0.2,0.7,51,0.00,,,0.00,WUHU216HW,2013-01-06 16:26:00,
2013-01-06 09:31:00,44.3,26.8,27.54,WNW,293,0.0,0.7,50,0.00,,,0.00,WUHU216HW,2013-01-06 16:31:00,
2013-01-06 09:36:00,44.8,26.8,27.54,ENE,68,0.0,0.7,49,0.00,,,0.00,WUHU216HW,2013-01-06 16:36:00,
2013-01-06 09:41:00,45.5,25.3,27.54,NE,45,0.0,0.9,45,0.00,,,0.00,WUHU216HW,2013-01-06 16:41:00,
2013-01-06 09:46:00,46.3,26.5,27.54,West,270,0.2,0.9,46,0.00,,,0.00,WUHU216HW,2013-01-06 16:46:00,
2013-01-06 09:51:00,46.6,26.3,27.54,NNW,338,0.2,0.7,45,0.00,,,0.00,WUHU216HW,2013-01-06 16:51:00,
2013-01-06 09:56:00,47.2,26.2,27.54,NNW,338,0.0,0.7,44,0.00,,,0.00,WUHU216HW,2013-01-06 16:56:00,
2013-01-06 10:01:00,47.5,26.0,27.53,West,270,0.0,0.7,43,0.00,,,0.00,WUHU216HW,2013-01-06 17:01:00,
2013-01-06 10:06:00,47.9,26.3,27.53,South,180,0.0,0.4,43,0.00,,,0.00,WUHU216HW,2013-01-06 17:06:00,
2013-01-06 10:11:00,48.2,26.1,27.53,SW,225,0.4,0.7,42,0.00,,,0.00,WUHU216HW,2013-01-06 17:11:00,
2013-01-06 10:16:00,49.0,25.7,27.53,SW,225,0.4,0.7,40,0.00,,,0.00,WUHU216HW,2013-01-06 17:16:00,
2013-01-06 10:21:00,49.5,25.5,27.53,North,0,1.8,1.8,39,0.00,,,0.00,WUHU216HW,2013-01-06 17:21:00,
2013-01-06 10:26:00,50.4,27.0,27.53,North,0,0.4,2.5,40,0.00,,,0.00,WUHU216HW,2013-01-06 17:26:00,
2013-01-06 10:31:00,50.9,26.7,27.53,NW,315,0.7,2.5,39,0.00,,,0.00,WUHU216HW,2013-01-06 17:31:00,
2013-01-06 10:36:00,51.5,27.3,27.52,North,0,0.2,1.3,39,0.00,,,0.00,WUHU216HW,2013-01-06 17:36:00,
2013-01-06 10:41:00,51.8,26.9,27.52,NNW,338,1.3,2.0,38,0.00,,,0.00,WUHU216HW,2013-01-06 17:41:00,
2013-01-06 10:46:00,52.6,24.1,27.52,NW,315,1.1,2.0,33,0.00,,,0.00,WUHU216HW,2013-01-06 17:46:00,
2013-01-06 10:52:00,53.6,25.7,27.51,NW,315,0.7,1.1,34,0.00,,,0.00,WUHU216HW,2013-01-06 17:52:00,
2013-01-06 10:56:00,54.0,26.1,27.51,NNW,338,0.7,1.6,34,0.00,,,0.00,WUHU216HW,2013-01-06 17:56:00,
2013-01-06 11:01:00,54.4,26.4,27.51,South,180,0.7,1.6,34,0.00,,,0.00,WUHU216HW,2013-01-06 18:01:00,
2013-01-06 11:07:00,54.5,26.6,27.51,East,90,0.7,0.9,34,0.00,,,0.00,WUHU216HW,2013-01-06 18:07:00,
2013-01-06 11:12:00,54.9,26.8,27.50,North,0,0.4,1.6,34,0.00,,,0.00,WUHU216HW,2013-01-06 18:12:00,
2013-01-06 11:16:00,55.4,26.6,27.50,NW,315,0.0,1.6,33,0.00,,,0.00,WUHU216HW,2013-01-06 18:16:00,
2013-01-06 11:21:00,56.0,26.4,27.50,ESE,113,0.0,0.7,32,0.00,,,0.00,WUHU216HW,2013-01-06 18:21:00,
2013-01-06 11:26:00,56.3,26.7,27.50,South,180,3.4,3.4,32,0.00,,,0.00,WUHU216HW,2013-01-06 18:26:00,
2013-01-06 11:31:00,56.9,27.2,27.49,ESE,113,1.8,3.4,32,0.00,,,0.00,WUHU216HW,2013-01-06 18:31:00,
2013-01-06 11:36:00,57.2,27.6,27.49,SE,135,1.1,2.7,32,0.00,,,0.00,WUHU216HW,2013-01-06 18:36:00,
2013-01-06 11:41:00,57.6,27.8,27.48,South,180,3.4,3.4,32,0.00,,,0.00,WUHU216HW,2013-01-06 18:41:00,
2013-01-06 11:46:00,58.0,27.5,27.48,SSW,203,1.1,3.4,31,0.00,,,0.00,WUHU216HW,2013-01-06 18:46:00,
2013-01-06 11:52:00,58.3,27.1,27.48,SSW,203,0.7,2.5,30,0.00,,,0.00,WUHU216HW,2013-01-06 18:52:00,
2013-01-06 11:56:00,58.7,27.4,27.48,ESE,113,0.4,2.2,30,0.00,,,0.00,WUHU216HW,2013-01-06 18:56:00,
2013-01-06 12:01:00,59.0,27.7,27.47,ENE,68,1.1,1.6,30,0.00,,,0.00,WUHU216HW,2013-01-06 19:01:00,
2013-01-06 12:06:00,59.4,27.0,27.47,SE,135,1.1,2.2,29,0.00,,,0.00,WUHU216HW,2013-01-06 19:06:00,
2013-01-06 12:11:00,59.8,27.4,27.46,East,90,1.6,2.2,29,0.00,,,0.00,WUHU216HW,2013-01-06 19:11:00,
2013-01-06 12:17:00,60.1,27.6,27.46,SE,135,1.3,1.6,29,0.00,,,0.00,WUHU216HW,2013-01-06 19:17:00,
2013-01-06 12:22:00,60.3,27.8,27.45,ESE,113,2.0,2.0,29,0.00,,,0.00,WUHU216HW,2013-01-06 19:22:00,
2013-01-06 12:27:00,60.7,27.1,27.45,East,90,0.9,2.0,28,0.00,,,0.00,WUHU216HW,2013-01-06 19:27:00,
2013-01-06 12:32:00,61.0,27.5,27.44,NNW,338,0.9,2.0,28,0.00,,,0.00,WUHU216HW,2013-01-06 19:32:00,
2013-01-06 12:37:00,61.2,26.7,27.44,NE,45,0.4,1.3,27,0.00,,,0.00,WUHU216HW,2013-01-06 19:37:00,
2013-01-06 12:47:00,61.9,27.3,27.43,SSW,203,0.9,1.8,27,0.00,,,0.00,WUHU216HW,2013-01-06 19:47:00,
2013-01-06 12:52:00,62.1,27.4,27.43,SSW,203,1.1,1.8,27,0.00,,,0.00,WUHU216HW,2013-01-06 19:52:00,
2013-01-06 12:57:00,62.3,27.5,27.43,NE,45,0.7,1.3,27,0.00,,,0.00,WUHU216HW,2013-01-06 19:57:00,
2013-01-06 13:02:00,62.3,25.7,27.43,SSE,158,1.1,2.7,25,0.00,,,0.00,WUHU216HW,2013-01-06 20:02:00,
2013-01-06 13:07:00,62.6,25.9,27.42,North,0,0.0,2.7,25,0.00,,,0.00,WUHU216HW,2013-01-06 20:07:00,
2013-01-06 13:11:00,62.8,27.1,27.42,South,180,0.0,1.1,26,0.00,,,0.00,WUHU216HW,2013-01-06 20:11:00,
2013-01-06 13:13:00,62.6,26.9,27.42,SW,225,0.0,0.7,26,0.00,,,0.00,WUHU216HW,2013-01-06 20:13:00,
2013-01-06 13:18:00,63.0,26.2,27.42,WNW,293,0.2,1.1,25,0.00,,,0.00,WUHU216HW,2013-01-06 20:18:00,
2013-01-06 13:23:00,63.0,26.2,27.42,NE,45,0.7,1.1,25,0.00,,,0.00,WUHU216HW,2013-01-06 20:23:00,
2013-01-06 13:28:00,63.2,26.4,27.41,NNW,338,0.0,0.9,25,0.00,,,0.00,WUHU216HW,2013-01-06 20:28:00,
2013-01-06 13:33:00,63.2,26.4,27.41,NNW,338,0.4,1.8,25,0.00,,,0.00,WUHU216HW,2013-01-06 20:33:00,
2013-01-06 13:38:00,63.4,26.6,27.41,East,90,0.0,1.8,25,0.00,,,0.00,WUHU216HW,2013-01-06 20:38:00,
2013-01-06 13:43:00,63.5,25.8,27.41,ESE,113,0.7,1.8,24,0.00,,,0.00,WUHU216HW,2013-01-06 20:43:00,
2013-01-06 13:48:00,63.7,26.8,27.41,SSE,158,0.4,1.8,25,0.00,,,0.00,WUHU216HW,2013-01-06 20:48:00,
2013-01-06 13:53:00,63.7,26.8,27.40,ENE,68,1.6,1.6,25,0.00,,,0.00,WUHU216HW,2013-01-06 20:53:00,
2013-01-06 13:58:00,63.7,25.8,27.40,ESE,113,0.4,1.6,24,0.00,,,0.00,WUHU216HW,2013-01-06 20:58:00,
2013-01-06 14:00:00,63.7,26.8,27.40,SW,225,0.4,1.6,25,0.00,,,0.00,WUHU216HW,2013-01-06 21:00:00,
2013-01-06 14:05:00,63.9,26.0,27.40,SSE,158,0.0,1.1,24,0.00,,,0.00,WUHU216HW,2013-01-06 21:05:00,
2013-01-06 14:10:00,63.9,26.0,27.40,SE,135,1.1,1.1,24,0.00,,,0.00,WUHU216HW,2013-01-06 21:10:00,
2013-01-06 14:15:00,64.1,26.2,27.40,NE,45,0.0,1.3,24,0.00,,,0.00,WUHU216HW,2013-01-06 21:15:00,
2013-01-06 14:20:00,64.1,26.2,27.40,East,90,0.9,1.3,24,0.00,,,0.00,WUHU216HW,2013-01-06 21:20:00,
2013-01-06 14:25:00,64.1,26.2,27.40,North,0,0.9,3.4,24,0.00,,,0.00,WUHU216HW,2013-01-06 21:25:00,
2013-01-06 14:30:00,64.1,26.2,27.40,ESE,113,0.4,3.4,24,0.00,,,0.00,WUHU216HW,2013-01-06 21:30:00,
2013-01-06 14:35:00,64.1,26.2,27.39,WSW,248,1.3,2.7,24,0.00,,,0.00,WUHU216HW,2013-01-06 21:35:00,
2013-01-06 14:40:00,64.1,26.2,27.39,SSW,203,0.4,2.7,24,0.00,,,0.00,WUHU216HW,2013-01-06 21:40:00,
2013-01-06 14:45:00,64.3,26.3,27.38,SSE,158,0.4,1.6,24,0.00,,,0.00,WUHU216HW,2013-01-06 21:45:00,
2013-01-06 14:50:00,64.1,26.2,27.38,SSE,158,1.1,3.4,24,0.00,,,0.00,WUHU216HW,2013-01-06 21:50:00,
2013-01-06 14:55:00,64.1,26.2,27.38,SSE,158,0.4,3.4,24,0.00,,,0.00,WUHU216HW,2013-01-06 21:55:00,
2013-01-06 15:00:00,64.1,26.2,27.37,ESE,113,0.9,1.8,24,0.00,,,0.00,WUHU216HW,2013-01-06 22:00:00,
2013-01-06 15:05:00,64.1,26.2,27.37,ENE,68,2.0,2.0,24,0.00,,,0.00,WUHU216HW,2013-01-06 22:05:00,
2013-01-06 15:10:00,64.1,26.2,27.37,North,0,2.2,2.2,24,0.00,,,0.00,WUHU216HW,2013-01-06 22:10:00,
2013-01-06 15:15:00,64.1,25.2,27.37,NE,45,2.5,4.0,23,0.00,,,0.00,WUHU216HW,2013-01-06 22:15:00,
2013-01-06 15:20:00,63.9,26.0,27.37,NNE,23,3.1,4.0,24,0.00,,,0.00,WUHU216HW,2013-01-06 22:20:00,
2013-01-06 15:25:00,63.9,25.0,27.36,West,270,0.9,3.6,23,0.00,,,0.00,WUHU216HW,2013-01-06 22:25:00,
2013-01-06 15:30:00,63.9,25.0,27.36,North,0,2.5,3.1,23,0.00,,,0.00,WUHU216HW,2013-01-06 22:30:00,
2013-01-06 15:35:00,63.7,24.8,27.36,NNE,23,2.9,3.1,23,0.00,,,0.00,WUHU216HW,2013-01-06 22:35:00,
2013-01-06 15:40:00,63.7,24.8,27.36,NE,45,0.2,3.6,23,0.00,,,0.00,WUHU216HW,2013-01-06 22:40:00,
2013-01-06 15:45:00,63.7,25.8,27.36,North,0,0.2,3.6,24,0.00,,,0.00,WUHU216HW,2013-01-06 22:45:00,
2013-01-06 15:50:00,63.7,25.8,27.36,ESE,113,0.4,1.3,24,0.00,,,0.00,WUHU216HW,2013-01-06 22:50:00,
2013-01-06 15:55:00,63.7,26.8,27.35,East,90,0.0,0.7,25,0.00,,,0.00,WUHU216HW,2013-01-06 22:55:00,
2013-01-06 16:00:00,63.5,26.7,27.35,NNE,23,0.4,0.4,25,0.00,,,0.00,WUHU216HW,2013-01-06 23:00:00,
2013-01-06 16:05:00,63.4,26.6,27.35,NE,45,0.7,1.6,25,0.00,,,0.00,WUHU216HW,2013-01-06 23:05:00,
2013-01-06 16:10:00,63.4,26.6,27.35,NE,45,1.8,1.8,25,0.00,,,0.00,WUHU216HW,2013-01-06 23:10:00,
2013-01-06 16:15:00,63.4,26.6,27.35,NNE,23,0.0,2.2,25,0.00,,,0.00,WUHU216HW,2013-01-06 23:15:00,
2013-01-06 16:20:00,63.2,27.4,27.35,ESE,113,0.2,2.2,26,0.00,,,0.00,WUHU216HW,2013-01-06 23:20:00,
2013-01-06 16:25:00,63.2,26.4,27.35,SSE,158,0.7,0.7,25,0.00,,,0.00,WUHU216HW,2013-01-06 23:25:00,
2013-01-06 16:30:00,63.0,26.2,27.35,SE,135,0.0,0.7,25,0.00,,,0.00,WUHU216HW,2013-01-06 23:30:00,
2013-01-06 16:35:00,63.0,27.2,27.35,ESE,113,0.4,0.7,26,0.00,,,0.00,WUHU216HW,2013-01-06 23:35:00,
2013-01-06 16:40:00,63.0,27.2,27.35,NE,45,0.7,0.7,26,0.00,,,0.00,WUHU216HW,2013-01-06 23:40:00,
2013-01-06 16:45:00,63.0,26.2,27.35,South,180,0.7,0.7,25,0.00,,,0.00,WUHU216HW,2013-01-06 23:45:00,
2013-01-06 16:50:00,63.0,27.2,27.35,SE,135,1.1,1.1,26,0.00,,,0.00,WUHU216HW,2013-01-06 23:50:00,
2013-01-06 16:55:00,63.0,26.2,27.35,NNW,338,0.0,1.1,25,0.00,,,0.00,WUHU216HW,2013-01-06 23:55:00,
2013-01-06 17:00:00,63.2,26.4,27.35,ESE,113,0.4,0.9,25,0.00,,,0.00,WUHU216HW,2013-01-07 00:00:00,
2013-01-06 17:05:00,63.0,26.2,27.35,ESE,113,0.4,1.6,25,0.00,,,0.00,WUHU216HW,2013-01-07 00:05:00,
2013-01-06 17:10:00,62.8,26.1,27.34,East,90,0.0,1.6,25,0.00,,,0.00,WUHU216HW,2013-01-07 00:10:00,
2013-01-06 17:15:00,62.6,26.9,27.34,East,90,0.0,0.4,26,0.00,,,0.00,WUHU216HW,2013-01-07 00:15:00,
2013-01-06 17:20:00,62.3,25.7,27.35,East,90,0.2,0.2,25,0.00,,,0.00,WUHU216HW,2013-01-07 00:20:00,
2013-01-06 17:25:00,61.9,25.3,27.34,East,90,0.0,0.7,25,0.00,,,0.00,WUHU216HW,2013-01-07 00:25:00,
2013-01-06 17:30:00,61.6,25.0,27.34,NE,45,0.7,1.3,25,0.00,,,0.00,WUHU216HW,2013-01-07 00:30:00,
2013-01-06 17:35:00,61.2,24.7,27.34,SSW,203,0.7,1.3,25,0.00,,,0.00,WUHU216HW,2013-01-07 00:35:00,
2013-01-06 17:40:00,60.8,24.4,27.35,East,90,0.7,1.1,25,0.00,,,0.00,WUHU216HW,2013-01-07 00:40:00,
2013-01-06 17:45:00,60.1,24.8,27.35,East,90,0.2,1.1,26,0.00,,,0.00,WUHU216HW,2013-01-07 00:45:00,
2013-01-06 17:50:00,59.8,25.4,27.34,NE,45,0.4,1.1,27,0.00,,,0.00,WUHU216HW,2013-01-07 00:50:00,
2013-01-06 17:55:00,59.4,25.1,27.34,East,90,0.0,0.9,27,0.00,,,0.00,WUHU216HW,2013-01-07 00:55:00,
2013-01-06 18:00:00,59.0,24.9,27.34,NE,45,0.0,0.9,27,0.00,,,0.00,WUHU216HW,2013-01-07 01:00:00,
2013-01-06 18:05:00,58.7,24.5,27.34,ESE,113,1.1,1.1,27,0.00,,,0.00,WUHU216HW,2013-01-07 01:05:00,
2013-01-06 18:10:00,58.1,25.0,27.34,ESE,113,1.3,1.3,28,0.00,,,0.00,WUHU216HW,2013-01-07 01:10:00,
2013-01-06 18:15:00,57.8,24.7,27.34,East,90,0.2,1.8,28,0.00,,,0.00,WUHU216HW,2013-01-07 01:15:00,
2013-01-06 18:20:00,57.6,24.5,27.33,NNE,23,0.4,1.8,28,0.00,,,0.00,WUHU216HW,2013-01-07 01:20:00,
2013-01-06 18:25:00,57.2,24.2,27.34,WNW,293,0.0,0.4,28,0.00,,,0.00,WUHU216HW,2013-01-07 01:25:00,
2013-01-06 18:30:00,56.9,23.9,27.34,NNW,338,0.0,0.4,28,0.00,,,0.00,WUHU216HW,2013-01-07 01:30:00,
2013-01-06 18:35:00,56.3,23.4,27.34,North,0,1.8,3.4,28,0.00,,,0.00,WUHU216HW,2013-01-07 01:35:00,
2013-01-06 18:40:00,56.5,24.5,27.34,NE,45,0.2,3.4,29,0.00,,,0.00,WUHU216HW,2013-01-07 01:40:00,
2013-01-06 18:45:00,56.3,24.3,27.34,East,90,0.0,1.8,29,0.00,,,0.00,WUHU216HW,2013-01-07 01:45:00,
2013-01-06 18:50:00,56.2,24.2,27.34,North,0,0.0,0.0,29,0.00,,,0.00,WUHU216HW,2013-01-07 01:50:00,
2013-01-06 18:55:00,55.8,24.9,27.33,NE,45,0.4,0.4,30,0.00,,,0.00,WUHU216HW,2013-01-07 01:55:00,
2013-01-06 19:00:00,55.3,25.0,27.34,North,0,0.0,0.4,31,0.00,,,0.00,WUHU216HW,2013-01-07 02:00:00,
2013-01-06 19:05:00,54.7,24.6,27.33,WSW,248,0.0,0.0,31,0.00,,,0.00,WUHU216HW,2013-01-07 02:05:00,
2013-01-06 19:10:00,54.0,24.7,27.33,NNW,338,0.0,0.0,32,0.00,,,0.00,WUHU216HW,2013-01-07 02:10:00,
2013-01-06 19:15:00,53.6,25.1,27.33,NE,45,0.2,0.4,33,0.00,,,0.00,WUHU216HW,2013-01-07 02:15:00,
2013-01-06 19:20:00,53.1,24.6,27.34,NE,45,0.0,0.4,33,0.00,,,0.00,WUHU216HW,2013-01-07 02:20:00,
2013-01-06 19:25:00,52.7,24.9,27.34,NE,45,0.0,0.0,34,0.00,,,0.00,WUHU216HW,2013-01-07 02:25:00,
2013-01-06 19:30:00,52.2,24.5,27.34,ENE,68,0.0,0.4,34,0.00,,,0.00,WUHU216HW,2013-01-07 02:30:00,
2013-01-06 19:35:00,51.3,24.4,27.34,NNE,23,0.7,0.7,35,0.00,,,0.00,WUHU216HW,2013-01-07 02:35:00,
2013-01-06 19:40:00,50.8,24.6,27.33,NNE,23,0.0,0.7,36,0.00,,,0.00,WUHU216HW,2013-01-07 02:40:00,
2013-01-06 19:45:00,50.6,24.4,27.33,ENE,68,0.0,0.2,36,0.00,,,0.00,WUHU216HW,2013-01-07 02:45:00,
2013-01-06 19:50:00,50.4,24.9,27.34,SW,225,0.0,0.2,37,0.00,,,0.00,WUHU216HW,2013-01-07 02:50:00,
2013-01-06 19:55:00,50.2,24.8,27.34,ESE,113,0.0,0.0,37,0.00,,,0.00,WUHU216HW,2013-01-07 02:55:00,
2013-01-06 20:00:00,49.7,24.9,27.34,SSE,158,0.0,0.4,38,0.00,,,0.00,WUHU216HW,2013-01-07 03:00:00,
2013-01-06 20:05:00,49.3,24.7,27.34,NNW,338,0.0,0.4,38,0.00,,,0.00,WUHU216HW,2013-01-07 03:05:00,
2013-01-06 20:10:00,48.8,24.1,27.34,NE,45,0.0,0.4,38,0.00,,,0.00,WUHU216HW,2013-01-07 03:10:00,
2013-01-06 20:15:00,48.4,23.9,27.34,ENE,68,0.0,0.4,38,0.00,,,0.00,WUHU216HW,2013-01-07 03:15:00,
2013-01-06 20:20:00,48.1,24.2,27.34,ENE,68,0.0,0.4,39,0.00,,,0.00,WUHU216HW,2013-01-07 03:20:00,
2013-01-06 20:25:00,47.9,24.0,27.34,NE,45,0.0,0.0,39,0.00,,,0.00,WUHU216HW,2013-01-07 03:25:00,
2013-01-06 20:30:00,47.5,24.4,27.34,ENE,68,0.0,0.4,40,0.00,,,0.00,WUHU216HW,2013-01-07 03:30:00,
2013-01-06 20:35:00,47.2,24.0,27.34,North,0,0.4,0.7,40,0.00,,,0.00,WUHU216HW,2013-01-07 03:35:00,
2013-01-06 20:40:00,46.6,24.7,27.34,NNW,338,0.4,1.1,42,0.00,,,0.00,WUHU216HW,2013-01-07 03:40:00,
2013-01-06 20:45:00,46.3,24.8,27.33,NNE,23,0.9,1.8,43,0.00,,,0.00,WUHU216HW,2013-01-07 03:45:00,
2013-01-06 20:50:00,46.1,24.7,27.33,NNE,23,0.0,1.8,43,0.00,,,0.00,WUHU216HW,2013-01-07 03:50:00,
2013-01-06 20:55:00,46.1,24.7,27.33,East,90,0.0,0.9,43,0.00,,,0.00,WUHU216HW,2013-01-07 03:55:00,
2013-01-06 21:00:00,45.9,25.1,27.33,NNE,23,0.0,0.7,44,0.00,,,0.00,WUHU216HW,2013-01-07 04:00:00,
2013-01-06 21:05:00,45.7,24.9,27.33,WNW,293,0.0,0.7,44,0.00,,,0.00,WUHU216HW,2013-01-07 04:05:00,
2013-01-06 21:10:00,45.7,24.9,27.33,ESE,113,0.0,0.0,44,0.00,,,0.00,WUHU216HW,2013-01-07 04:10:00,
2013-01-06 21:15:00,45.4,25.1,27.33,North,0,0.0,0.7,45,0.00,,,0.00,WUHU216HW,2013-01-07 04:15:00,
2013-01-06 21:20:00,45.2,24.9,27.33,NNE,23,0.4,0.7,45,0.00,,,0.00,WUHU216HW,2013-01-07 04:20:00,
2013-01-06 21:25:00,45.0,25.4,27.33,SE,135,0.4,0.7,46,0.00,,,0.00,WUHU216HW,2013-01-07 04:25:00,
2013-01-06 21:30:00,45.0,25.4,27.33,East,90,0.0,0.7,46,0.00,,,0.00,WUHU216HW,2013-01-07 04:30:00,
2013-01-06 21:35:00,44.6,25.0,27.33,ESE,113,0.0,0.4,46,0.00,,,0.00,WUHU216HW,2013-01-07 04:35:00,
2013-01-06 21:40:00,44.6,25.6,27.34,North,0,0.0,0.4,47,0.00,,,0.00,WUHU216HW,2013-01-07 04:40:00,
2013-01-06 21:45:00,44.5,25.4,27.34,NNE,23,0.0,0.4,47,0.00,,,0.00,WUHU216HW,2013-01-07 04:45:00,
2013-01-06 21:50:00,44.3,25.2,27.34,ESE,113,0.0,0.4,47,0.00,,,0.00,WUHU216HW,2013-01-07 04:50:00,
2013-01-06 21:55:00,44.1,25.7,27.34,ESE,113,0.2,0.4,48,0.00,,,0.00,WUHU216HW,2013-01-07 04:55:00,
2013-01-06 22:00:00,43.9,25.5,27.34,NE,45,0.4,0.9,48,0.00,,,0.00,WUHU216HW,2013-01-07 05:00:00,
2013-01-06 22:05:00,43.6,25.7,27.34,NNW,338,0.0,1.1,49,0.00,,,0.00,WUHU216HW,2013-01-07 05:05:00,
2013-01-06 22:10:00,43.6,25.7,27.35,SE,135,0.0,1.1,49,0.00,,,0.00,WUHU216HW,2013-01-07 05:10:00,
2013-01-06 22:15:00,43.4,25.5,27.35,NW,315,0.2,0.4,49,0.00,,,0.00,WUHU216HW,2013-01-07 05:15:00,
2013-01-06 22:20:00,43.2,25.9,27.35,SW,225,0.0,0.4,50,0.00,,,0.00,WUHU216HW,2013-01-07 05:20:00,
2013-01-06 22:25:00,43.6,26.2,27.35,North,0,0.0,0.2,50,0.00,,,0.00,WUHU216HW,2013-01-07 05:25:00,
2013-01-06 22:30:00,43.7,26.4,27.35,SSW,203,0.0,0.9,50,0.00,,,0.00,WUHU216HW,2013-01-07 05:30:00,
2013-01-06 22:35:00,43.9,26.0,27.35,NNE,23,0.4,0.9,49,0.00,,,0.00,WUHU216HW,2013-01-07 05:35:00,
2013-01-06 22:40:00,43.7,25.8,27.35,East,90,0.0,0.7,49,0.00,,,0.00,WUHU216HW,2013-01-07 05:40:00,
2013-01-06 22:45:00,43.7,25.8,27.34,ESE,113,0.0,0.4,49,0.00,,,0.00,WUHU216HW,2013-01-07 05:45:00,
2013-01-06 22:50:00,43.6,26.2,27.34,East,90,0.0,0.7,50,0.00,,,0.00,WUHU216HW,2013-01-07 05:50:00,
2013-01-06 22:55:00,43.4,26.0,27.34,East,90,0.0,0.7,50,0.00,,,0.00,WUHU216HW,2013-01-07 05:55:00,
2013-01-06 23:00:00,43.0,25.8,27.34,ESE,113,0.0,0.0,50,0.00,,,0.00,WUHU216HW,2013-01-07 06:00:00,
2013-01-06 23:05:00,42.8,25.6,27.34,ESE,113,0.0,0.4,50,0.00,,,0.00,WUHU216HW,2013-01-07 06:05:00,
2013-01-06 23:10:00,42.5,25.7,27.34,ENE,68,0.2,0.4,51,0.00,,,0.00,WUHU216HW,2013-01-07 06:10:00,
2013-01-06 23:15:00,42.3,25.0,27.34,ESE,113,0.0,0.4,50,0.00,,,0.00,WUHU216HW,2013-01-07 06:15:00,
2013-01-06 23:20:00,42.5,25.7,27.34,NNW,338,0.0,0.4,51,0.00,,,0.00,WUHU216HW,2013-01-07 06:20:00,
2013-01-06 23:25:00,42.5,25.7,27.34,North,0,0.0,0.4,51,0.00,,,0.00,WUHU216HW,2013-01-07 06:25:00,
2013-01-06 23:30:00,42.7,25.8,27.34,North,0,0.0,0.0,51,0.00,,,0.00,WUHU216HW,2013-01-07 06:30:00,
2013-01-06 23:35:00,42.7,25.8,27.34,NE,45,0.4,0.4,51,0.00,,,0.00,WUHU216HW,2013-01-07 06:35:00,
2013-01-06 23:40:00,42.1,24.8,27.33,East,90,0.0,0.4,50,0.00,,,0.00,WUHU216HW,2013-01-07 06:40:00,
2013-01-06 23:45:00,42.1,24.8,27.33,SE,135,0.0,0.4,50,0.00,,,0.00,WUHU216HW,2013-01-07 06:45:00,
2013-01-06 23:50:00,42.3,25.0,27.33,West,270,0.0,0.2,50,0.00,,,0.00,WUHU216HW,2013-01-07 06:50:00,
2013-01-06 23:55:00,42.5,26.1,27.33,WNW,293,0.0,0.2,52,0.00,,,0.00,WUHU216HW,2013-01-07 06:55:00,